sensor_id;sensor_type;location;lat;lon;timestamp;pressure;altitude;pressure_sealevel;temperature;humidity
57126;BME280;43000;50.770;6.110;2022-07-21T00:00:17;99827.22;;;19.55;73.83
57126;BME280;43000;50.770;6.110;2022-07-21T00:02:44;99841.09;;;19.48;73.73
57126;BME280;43000;50.770;6.110;2022-07-21T00:05:11;99850.22;;;19.46;74.30
57126;BME280;43000;50.770;6.110;2022-07-21T00:07:38;99854.84;;;19.44;74.37
57126;BME280;43000;50.770;6.110;2022-07-21T00:10:06;99848.66;;;19.43;74.24
57126;BME280;43000;50.770;6.110;2022-07-21T00:12:34;99842.84;;;19.38;74.41
57126;BME280;43000;50.770;6.110;2022-07-21T00:15:01;99843.41;;;19.32;74.99
57126;BME280;43000;50.770;6.110;2022-07-21T00:17:28;99831.25;;;19.28;75.38
57126;BME280;43000;50.770;6.110;2022-07-21T00:19:55;99838.44;;;19.27;75.41
57126;BME280;43000;50.770;6.110;2022-07-21T00:22:22;99827.97;;;19.24;75.47
57126;BME280;43000;50.770;6.110;2022-07-21T00:24:48;99830.53;;;19.26;75.82
57126;BME280;43000;50.770;6.110;2022-07-21T00:27:15;99827.28;;;19.22;75.75
57126;BME280;43000;50.770;6.110;2022-07-21T00:29:43;99825.56;;;19.21;75.68
57126;BME280;43000;50.770;6.110;2022-07-21T00:32:09;99826.41;;;19.22;75.98
57126;BME280;43000;50.770;6.110;2022-07-21T00:34:36;99835.31;;;19.22;75.96
57126;BME280;43000;50.770;6.110;2022-07-21T00:37:03;99840.66;;;19.22;75.95
57126;BME280;43000;50.770;6.110;2022-07-21T00:39:29;99830.66;;;19.24;76.14
57126;BME280;43000;50.770;6.110;2022-07-21T00:41:56;99831.25;;;19.28;76.57
57126;BME280;43000;50.770;6.110;2022-07-21T00:44:25;99839.13;;;19.29;76.24
57126;BME280;43000;50.770;6.110;2022-07-21T00:46:54;99829.31;;;19.30;76.30
57126;BME280;43000;50.770;6.110;2022-07-21T00:49:21;99835.88;;;19.26;76.46
57126;BME280;43000;50.770;6.110;2022-07-21T00:51:48;99835.41;;;19.21;76.63
57126;BME280;43000;50.770;6.110;2022-07-21T00:54:16;99831.06;;;19.20;76.84
57126;BME280;43000;50.770;6.110;2022-07-21T00:56:45;99825.44;;;19.23;76.75
57126;BME280;43000;50.770;6.110;2022-07-21T00:59:11;99824.84;;;19.19;77.03
57126;BME280;43000;50.770;6.110;2022-07-21T01:01:38;99821.44;;;19.17;77.18
57126;BME280;43000;50.770;6.110;2022-07-21T01:04:06;99832.03;;;19.19;77.20
57126;BME280;43000;50.770;6.110;2022-07-21T01:06:33;99822.44;;;19.16;77.24
57126;BME280;43000;50.770;6.110;2022-07-21T01:08:59;99819.78;;;19.16;77.38
57126;BME280;43000;50.770;6.110;2022-07-21T01:11:26;99818.09;;;19.15;77.26
57126;BME280;43000;50.770;6.110;2022-07-21T01:13:53;99816.38;;;19.14;77.12
57126;BME280;43000;50.770;6.110;2022-07-21T01:16:20;99813.84;;;19.13;77.25
57126;BME280;43000;50.770;6.110;2022-07-21T01:18:47;99804.72;;;19.15;77.00
57126;BME280;43000;50.770;6.110;2022-07-21T01:21:27;99814.16;;;19.19;77.07
57126;BME280;43000;50.770;6.110;2022-07-21T01:23:54;99808.97;;;19.18;76.82
57126;BME280;43000;50.770;6.110;2022-07-21T01:26:21;99820.50;;;19.18;77.02
57126;BME280;43000;50.770;6.110;2022-07-21T01:28:47;99813.69;;;19.14;76.90
57126;BME280;43000;50.770;6.110;2022-07-21T01:31:14;99821.59;;;19.16;77.16
57126;BME280;43000;50.770;6.110;2022-07-21T01:33:41;99824.41;;;19.14;77.11
57126;BME280;43000;50.770;6.110;2022-07-21T01:36:07;99817.38;;;19.13;77.14
57126;BME280;43000;50.770;6.110;2022-07-21T01:38:35;99834.34;;;19.12;77.22
57126;BME280;43000;50.770;6.110;2022-07-21T01:41:19;99831.38;;;19.05;77.39
57126;BME280;43000;50.770;6.110;2022-07-21T01:43:55;99828.69;;;19.05;77.23
57126;BME280;43000;50.770;6.110;2022-07-21T01:46:22;99838.66;;;19.03;77.97
57126;BME280;43000;50.770;6.110;2022-07-21T01:48:48;99833.44;;;19.02;77.92
57126;BME280;43000;50.770;6.110;2022-07-21T01:51:15;99829.81;;;19.03;77.79
57126;BME280;43000;50.770;6.110;2022-07-21T01:53:43;99830.66;;;19.03;77.98
57126;BME280;43000;50.770;6.110;2022-07-21T01:56:09;99833.44;;;19.02;77.95
57126;BME280;43000;50.770;6.110;2022-07-21T01:58:36;99835.28;;;19.01;78.15
57126;BME280;43000;50.770;6.110;2022-07-21T02:01:03;99839.03;;;18.99;78.10
57126;BME280;43000;50.770;6.110;2022-07-21T02:03:29;99831.03;;;18.99;78.72
57126;BME280;43000;50.770;6.110;2022-07-21T02:06:00;99835.53;;;18.98;78.38
57126;BME280;43000;50.770;6.110;2022-07-21T02:08:27;99837.47;;;18.96;78.82
57126;BME280;43000;50.770;6.110;2022-07-21T02:10:55;99834.53;;;18.99;79.33
57126;BME280;43000;50.770;6.110;2022-07-21T02:13:22;99832.03;;;18.98;78.72
57126;BME280;43000;50.770;6.110;2022-07-21T02:15:49;99837.59;;;18.95;78.83
57126;BME280;43000;50.770;6.110;2022-07-21T02:18:15;99832.97;;;18.97;78.95
57126;BME280;43000;50.770;6.110;2022-07-21T02:20:42;99833.59;;;19.00;79.16
57126;BME280;43000;50.770;6.110;2022-07-21T02:23:10;99836.84;;;19.04;78.98
57126;BME280;43000;50.770;6.110;2022-07-21T02:25:37;99833.06;;;19.06;78.88
57126;BME280;43000;50.770;6.110;2022-07-21T02:28:05;99836.84;;;19.04;79.12
57126;BME280;43000;50.770;6.110;2022-07-21T02:30:31;99837.81;;;19.03;79.00
57126;BME280;43000;50.770;6.110;2022-07-21T02:32:58;99844.97;;;19.02;79.14
57126;BME280;43000;50.770;6.110;2022-07-21T02:35:25;99839.16;;;18.97;79.67
57126;BME280;43000;50.770;6.110;2022-07-21T02:37:51;99838.47;;;18.95;79.78
57126;BME280;43000;50.770;6.110;2022-07-21T02:40:18;99835.66;;;18.97;80.03
57126;BME280;43000;50.770;6.110;2022-07-21T02:42:45;99836.63;;;18.96;79.93
57126;BME280;43000;50.770;6.110;2022-07-21T02:45:13;99838.47;;;18.95;79.65
57126;BME280;43000;50.770;6.110;2022-07-21T02:47:50;99833.13;;;18.95;79.97
57126;BME280;43000;50.770;6.110;2022-07-21T02:50:18;99825.81;;;18.97;80.18
57126;BME280;43000;50.770;6.110;2022-07-21T02:52:45;99826.78;;;18.96;79.57
57126;BME280;43000;50.770;6.110;2022-07-21T02:55:12;99832.88;;;18.98;79.72
57126;BME280;43000;50.770;6.110;2022-07-21T02:57:39;99822.91;;;19.00;79.73
57126;BME280;43000;50.770;6.110;2022-07-21T03:00:07;99819.97;;;19.03;79.66
57126;BME280;43000;50.770;6.110;2022-07-21T03:02:36;99827.13;;;19.03;79.41
57126;BME280;43000;50.770;6.110;2022-07-21T03:05:03;99818.97;;;19.04;79.87
57126;BME280;43000;50.770;6.110;2022-07-21T03:07:30;99820.69;;;19.05;79.52
57126;BME280;43000;50.770;6.110;2022-07-21T03:09:57;99813.41;;;19.07;80.01
57126;BME280;43000;50.770;6.110;2022-07-21T03:12:23;99817.75;;;19.08;79.96
57126;BME280;43000;50.770;6.110;2022-07-21T03:14:50;99825.00;;;19.18;79.59
57126;BME280;43000;50.770;6.110;2022-07-21T03:17:18;99820.38;;;19.20;79.03
57126;BME280;43000;50.770;6.110;2022-07-21T03:19:46;99816.00;;;19.19;78.99
57126;BME280;43000;50.770;6.110;2022-07-21T03:22:12;99815.03;;;19.20;79.02
57126;BME280;43000;50.770;6.110;2022-07-21T03:24:39;99811.94;;;19.24;79.00
57126;BME280;43000;50.770;6.110;2022-07-21T03:27:05;99822.50;;;19.26;78.77
57126;BME280;43000;50.770;6.110;2022-07-21T03:29:32;99814.38;;;19.27;78.73
57126;BME280;43000;50.770;6.110;2022-07-21T03:31:59;99815.50;;;19.25;78.66
57126;BME280;43000;50.770;6.110;2022-07-21T03:34:25;99822.63;;;19.24;78.95
57126;BME280;43000;50.770;6.110;2022-07-21T03:36:53;99818.16;;;19.25;78.92
57126;BME280;43000;50.770;6.110;2022-07-21T03:39:20;99820.84;;;19.25;78.88
57126;BME280;43000;50.770;6.110;2022-07-21T03:41:46;99815.50;;;19.25;78.92
57126;BME280;43000;50.770;6.110;2022-07-21T03:44:13;99827.59;;;19.29;79.04
57126;BME280;43000;50.770;6.110;2022-07-21T03:46:39;99817.50;;;19.33;78.53
57126;BME280;43000;50.770;6.110;2022-07-21T03:49:06;99810.06;;;19.36;78.47
57126;BME280;43000;50.770;6.110;2022-07-21T03:51:32;99821.59;;;19.37;78.13
57126;BME280;43000;50.770;6.110;2022-07-21T03:54:00;99820.03;;;19.34;77.85
57126;BME280;43000;50.770;6.110;2022-07-21T03:56:27;99810.78;;;19.38;77.76
57126;BME280;43000;50.770;6.110;2022-07-21T03:58:54;99807.84;;;19.41;77.71
57126;BME280;43000;50.770;6.110;2022-07-21T04:01:20;99810.66;;;19.40;77.55
57126;BME280;43000;50.770;6.110;2022-07-21T04:03:47;99803.75;;;19.37;77.43
57126;BME280;43000;50.770;6.110;2022-07-21T04:06:14;99807.25;;;19.38;77.85
57126;BME280;43000;50.770;6.110;2022-07-21T04:08:40;99800.66;;;19.42;77.58
57126;BME280;43000;50.770;6.110;2022-07-21T04:11:08;99806.59;;;19.45;77.38
57126;BME280;43000;50.770;6.110;2022-07-21T04:13:35;99800.53;;;19.43;77.39
57126;BME280;43000;50.770;6.110;2022-07-21T04:16:01;99799.69;;;19.43;77.30
57126;BME280;43000;50.770;6.110;2022-07-21T04:18:28;99803.19;;;19.43;77.25
57126;BME280;43000;50.770;6.110;2022-07-21T04:20:54;99800.53;;;19.43;76.85
57126;BME280;43000;50.770;6.110;2022-07-21T04:23:21;99807.84;;;19.41;76.96
57126;BME280;43000;50.770;6.110;2022-07-21T04:25:48;99814.88;;;19.42;77.22
57126;BME280;43000;50.770;6.110;2022-07-21T04:28:15;99818.28;;;19.44;77.07
57126;BME280;43000;50.770;6.110;2022-07-21T04:30:42;99824.16;;;19.38;76.94
57126;BME280;43000;50.770;6.110;2022-07-21T04:33:09;99820.75;;;19.36;77.26
57126;BME280;43000;50.770;6.110;2022-07-21T04:35:35;99825.81;;;19.39;77.14
57126;BME280;43000;50.770;6.110;2022-07-21T04:38:02;99828.25;;;19.42;76.84
57126;BME280;43000;50.770;6.110;2022-07-21T04:40:29;99828.97;;;19.44;77.31
57126;BME280;43000;50.770;6.110;2022-07-21T04:42:55;99834.06;;;19.47;77.12
57126;BME280;43000;50.770;6.110;2022-07-21T04:45:23;99821.41;;;19.49;76.82
57126;BME280;43000;50.770;6.110;2022-07-21T04:47:51;99831.66;;;19.44;77.16
57126;BME280;43000;50.770;6.110;2022-07-21T04:50:20;99820.81;;;19.46;77.42
57126;BME280;43000;50.770;6.110;2022-07-21T04:52:48;99814.75;;;19.44;77.41
57126;BME280;43000;50.770;6.110;2022-07-21T04:55:15;99827.00;;;19.46;77.36
57126;BME280;43000;50.770;6.110;2022-07-21T04:57:43;99832.34;;;19.46;76.99
57126;BME280;43000;50.770;6.110;2022-07-21T05:00:13;99834.06;;;19.47;77.10
57126;BME280;43000;50.770;6.110;2022-07-21T05:02:42;99847.44;;;19.47;77.10
57126;BME280;43000;50.770;6.110;2022-07-21T05:05:09;99845.59;;;19.48;77.31
57126;BME280;43000;50.770;6.110;2022-07-21T05:07:35;99858.97;;;19.48;77.66
57126;BME280;43000;50.770;6.110;2022-07-21T05:10:04;99859.09;;;19.46;77.42
57126;BME280;43000;50.770;6.110;2022-07-21T05:12:30;99858.13;;;19.47;77.46
57126;BME280;43000;50.770;6.110;2022-07-21T05:14:57;99854.34;;;19.50;77.52
57126;BME280;43000;50.770;6.110;2022-07-21T05:17:23;99850.56;;;19.52;76.95
57126;BME280;43000;50.770;6.110;2022-07-21T05:19:51;99835.78;;;19.58;77.17
57126;BME280;43000;50.770;6.110;2022-07-21T05:22:18;99842.44;;;19.64;76.69
57126;BME280;43000;50.770;6.110;2022-07-21T05:24:45;99836.72;;;19.68;76.52
57126;BME280;43000;50.770;6.110;2022-07-21T05:27:11;99837.91;;;19.76;76.16
57126;BME280;43000;50.770;6.110;2022-07-21T05:29:38;99835.00;;;19.88;75.59
57126;BME280;43000;50.770;6.110;2022-07-21T05:32:05;99828.13;;;19.95;75.29
57126;BME280;43000;50.770;6.110;2022-07-21T05:34:32;99834.94;;;20.09;74.82
57126;BME280;43000;50.770;6.110;2022-07-21T05:37:01;99830.84;;;20.05;73.80
57126;BME280;43000;50.770;6.110;2022-07-21T05:39:29;99820.31;;;20.13;73.94
57126;BME280;43000;50.770;6.110;2022-07-21T05:41:55;99825.00;;;20.21;73.96
57126;BME280;43000;50.770;6.110;2022-07-21T05:44:22;99824.84;;;20.23;73.29
57126;BME280;43000;50.770;6.110;2022-07-21T05:46:48;99820.59;;;20.20;73.52
57126;BME280;43000;50.770;6.110;2022-07-21T05:49:15;99823.88;;;20.24;73.22
57126;BME280;43000;50.770;6.110;2022-07-21T05:51:42;99824.59;;;20.26;72.98
57126;BME280;43000;50.770;6.110;2022-07-21T05:54:10;99825.16;;;20.29;73.13
57126;BME280;43000;50.770;6.110;2022-07-21T05:56:36;99826.69;;;20.32;72.81
57126;BME280;43000;50.770;6.110;2022-07-21T05:59:03;99828.81;;;20.28;73.11
57126;BME280;43000;50.770;6.110;2022-07-21T06:01:29;99838.84;;;20.36;72.86
57126;BME280;43000;50.770;6.110;2022-07-21T06:03:56;99840.13;;;20.42;72.45
57126;BME280;43000;50.770;6.110;2022-07-21T06:06:22;99833.75;;;20.43;72.58
57126;BME280;43000;50.770;6.110;2022-07-21T06:08:49;99842.66;;;20.43;72.86
57126;BME280;43000;50.770;6.110;2022-07-21T06:11:19;99846.63;;;20.49;72.21
57126;BME280;43000;50.770;6.110;2022-07-21T06:13:46;99845.78;;;20.48;72.03
57126;BME280;43000;50.770;6.110;2022-07-21T06:16:13;99848.16;;;20.42;71.71
57126;BME280;43000;50.770;6.110;2022-07-21T06:18:40;99849.41;;;20.37;71.87
57126;BME280;43000;50.770;6.110;2022-07-21T06:21:06;99853.59;;;20.30;71.67
57126;BME280;43000;50.770;6.110;2022-07-21T06:23:33;99857.00;;;20.32;71.48
57126;BME280;43000;50.770;6.110;2022-07-21T06:25:59;99848.00;;;20.33;71.71
57126;BME280;43000;50.770;6.110;2022-07-21T06:28:27;99851.50;;;20.34;70.98
57126;BME280;43000;50.770;6.110;2022-07-21T06:30:54;99845.56;;;20.30;70.51
57126;BME280;43000;50.770;6.110;2022-07-21T06:33:21;99845.84;;;20.27;70.45
57126;BME280;43000;50.770;6.110;2022-07-21T06:35:48;99844.91;;;20.38;70.15
57126;BME280;43000;50.770;6.110;2022-07-21T06:38:14;99850.13;;;20.40;70.09
57126;BME280;43000;50.770;6.110;2022-07-21T06:40:41;99843.22;;;20.47;69.93
57126;BME280;43000;50.770;6.110;2022-07-21T06:43:07;99849.16;;;20.50;69.48
57126;BME280;43000;50.770;6.110;2022-07-21T06:45:35;99847.34;;;20.51;69.38
57126;BME280;43000;50.770;6.110;2022-07-21T06:48:04;99857.34;;;20.49;69.49
57126;BME280;43000;50.770;6.110;2022-07-21T06:50:31;99869.44;;;20.43;69.65
57126;BME280;43000;50.770;6.110;2022-07-21T06:52:58;99868.31;;;20.46;69.81
57126;BME280;43000;50.770;6.110;2022-07-21T06:55:25;99855.22;;;20.52;69.75
57126;BME280;43000;50.770;6.110;2022-07-21T06:57:52;99854.25;;;20.53;69.56
57126;BME280;43000;50.770;6.110;2022-07-21T07:00:19;99841.88;;;20.72;69.13
57126;BME280;43000;50.770;6.110;2022-07-21T07:03:06;99837.25;;;20.93;68.17
57126;BME280;43000;50.770;6.110;2022-07-21T07:05:36;99839.22;;;20.91;68.14
57126;BME280;43000;50.770;6.110;2022-07-21T07:08:03;99846.97;;;21.04;68.10
57126;BME280;43000;50.770;6.110;2022-07-21T07:10:30;99850.22;;;21.17;66.56
57126;BME280;43000;50.770;6.110;2022-07-21T07:13:00;99854.75;;;21.36;66.45
57126;BME280;43000;50.770;6.110;2022-07-21T07:15:27;99852.63;;;21.50;65.21
57126;BME280;43000;50.770;6.110;2022-07-21T07:17:55;99859.41;;;21.54;65.38
57126;BME280;43000;50.770;6.110;2022-07-21T07:20:22;99859.56;;;21.42;65.48
57126;BME280;43000;50.770;6.110;2022-07-21T07:22:49;99865.47;;;21.36;66.15
57126;BME280;43000;50.770;6.110;2022-07-21T07:25:16;99862.09;;;21.34;65.99
57126;BME280;43000;50.770;6.110;2022-07-21T07:27:43;99871.25;;;21.32;66.02
57126;BME280;43000;50.770;6.110;2022-07-21T07:30:10;99871.09;;;21.23;65.76
57126;BME280;43000;50.770;6.110;2022-07-21T07:32:37;99877.75;;;21.19;65.39
57126;BME280;43000;50.770;6.110;2022-07-21T07:35:07;99875.75;;;21.21;65.33
57126;BME280;43000;50.770;6.110;2022-07-21T07:37:34;99864.47;;;21.37;64.82
57126;BME280;43000;50.770;6.110;2022-07-21T07:40:01;99876.19;;;21.46;64.27
57126;BME280;43000;50.770;6.110;2022-07-21T07:42:28;99871.28;;;21.41;64.63
57126;BME280;43000;50.770;6.110;2022-07-21T07:44:55;99873.97;;;21.41;64.05
57126;BME280;43000;50.770;6.110;2022-07-21T07:47:24;99859.66;;;21.31;64.14
57126;BME280;43000;50.770;6.110;2022-07-21T07:49:51;99864.06;;;21.32;63.54
57126;BME280;43000;50.770;6.110;2022-07-21T07:52:19;99872.53;;;21.37;64.04
57126;BME280;43000;50.770;6.110;2022-07-21T07:54:46;99869.00;;;21.47;63.49
57126;BME280;43000;50.770;6.110;2022-07-21T07:57:13;99873.22;;;21.59;63.63
57126;BME280;43000;50.770;6.110;2022-07-21T07:59:39;99872.22;;;21.70;63.31
57126;BME280;43000;50.770;6.110;2022-07-21T08:02:06;99868.13;;;21.56;62.96
57126;BME280;43000;50.770;6.110;2022-07-21T08:04:32;99875.34;;;21.55;63.60
57126;BME280;43000;50.770;6.110;2022-07-21T08:07:00;99870.53;;;21.59;63.40
57126;BME280;43000;50.770;6.110;2022-07-21T08:09:28;99874.91;;;21.60;63.59
57126;BME280;43000;50.770;6.110;2022-07-21T08:11:55;99872.53;;;21.57;63.10
57126;BME280;43000;50.770;6.110;2022-07-21T08:14:21;99873.47;;;21.65;62.88
57126;BME280;43000;50.770;6.110;2022-07-21T08:16:48;99876.63;;;21.61;63.07
57126;BME280;43000;50.770;6.110;2022-07-21T08:19:15;99876.00;;;21.77;62.93
57126;BME280;43000;50.770;6.110;2022-07-21T08:21:41;99872.31;;;21.78;62.08
57126;BME280;43000;50.770;6.110;2022-07-21T08:24:08;99876.00;;;21.77;62.30
57126;BME280;43000;50.770;6.110;2022-07-21T08:26:36;99869.19;;;21.82;62.36
57126;BME280;43000;50.770;6.110;2022-07-21T08:29:03;99869.38;;;21.81;61.93
57126;BME280;43000;50.770;6.110;2022-07-21T08:31:29;99865.53;;;21.83;61.68
57126;BME280;43000;50.770;6.110;2022-07-21T08:33:58;99872.84;;;21.91;61.43
57126;BME280;43000;50.770;6.110;2022-07-21T08:36:26;99866.75;;;21.99;60.48
57126;BME280;43000;50.770;6.110;2022-07-21T08:38:53;99870.97;;;22.01;59.56
57126;BME280;43000;50.770;6.110;2022-07-21T08:41:20;99871.56;;;21.95;58.81
57126;BME280;43000;50.770;6.110;2022-07-21T08:43:50;99872.25;;;21.97;58.89
57126;BME280;43000;50.770;6.110;2022-07-21T08:46:18;99868.31;;;22.01;59.24
57126;BME280;43000;50.770;6.110;2022-07-21T08:48:46;99870.97;;;22.01;58.95
57126;BME280;43000;50.770;6.110;2022-07-21T08:51:14;99871.69;;;22.03;58.77
57126;BME280;43000;50.770;6.110;2022-07-21T08:53:43;99871.13;;;22.00;59.25
57126;BME280;43000;50.770;6.110;2022-07-21T08:56:10;99866.31;;;22.03;59.52
57126;BME280;43000;50.770;6.110;2022-07-21T08:58:36;99874.50;;;22.02;59.08
57126;BME280;43000;50.770;6.110;2022-07-21T09:01:04;99872.53;;;22.04;59.10
57126;BME280;43000;50.770;6.110;2022-07-21T09:03:31;99871.09;;;22.09;59.00
57126;BME280;43000;50.770;6.110;2022-07-21T09:06:03;99868.78;;;22.24;59.20
57126;BME280;43000;50.770;6.110;2022-07-21T09:08:31;99867.19;;;22.32;59.13
57126;BME280;43000;50.770;6.110;2022-07-21T09:11:17;99875.13;;;22.33;59.47
57126;BME280;43000;50.770;6.110;2022-07-21T09:13:46;99876.41;;;22.19;59.85
57126;BME280;43000;50.770;6.110;2022-07-21T09:16:32;99878.16;;;22.11;60.74
57126;BME280;43000;50.770;6.110;2022-07-21T09:18:59;99885.94;;;22.04;61.75
57126;BME280;43000;50.770;6.110;2022-07-21T09:21:26;99890.34;;;21.95;62.13
57126;BME280;43000;50.770;6.110;2022-07-21T09:24:10;99885.44;;;21.91;62.52
57126;BME280;43000;50.770;6.110;2022-07-21T09:26:57;99891.69;;;21.81;63.25
57126;BME280;43000;50.770;6.110;2022-07-21T09:29:24;99903.41;;;21.71;63.71
57126;BME280;43000;50.770;6.110;2022-07-21T09:31:52;99907.41;;;21.57;63.78
57126;BME280;43000;50.770;6.110;2022-07-21T09:34:18;99903.19;;;21.44;64.17
57126;BME280;43000;50.770;6.110;2022-07-21T09:36:54;99900.75;;;21.32;65.12
57126;BME280;43000;50.770;6.110;2022-07-21T09:39:40;99906.97;;;21.22;65.84
57126;BME280;43000;50.770;6.110;2022-07-21T09:42:15;99908.50;;;21.15;65.66
57126;BME280;43000;50.770;6.110;2022-07-21T09:44:44;99903.84;;;21.08;65.40
57126;BME280;43000;50.770;6.110;2022-07-21T09:47:14;99903.00;;;20.97;65.50
57126;BME280;43000;50.770;6.110;2022-07-21T09:49:42;99907.06;;;20.92;66.01
57126;BME280;43000;50.770;6.110;2022-07-21T09:52:24;99911.75;;;20.90;66.70
57126;BME280;43000;50.770;6.110;2022-07-21T09:54:51;99911.44;;;20.83;68.18
57126;BME280;43000;50.770;6.110;2022-07-21T09:57:19;99914.94;;;20.74;68.74
57126;BME280;43000;50.770;6.110;2022-07-21T09:59:47;99906.75;;;20.66;69.70
57126;BME280;43000;50.770;6.110;2022-07-21T10:02:18;99909.13;;;20.59;70.66
57126;BME280;43000;50.770;6.110;2022-07-21T10:04:48;99915.66;;;20.45;71.13
57126;BME280;43000;50.770;6.110;2022-07-21T10:07:17;99915.91;;;20.32;72.32
57126;BME280;43000;50.770;6.110;2022-07-21T10:09:44;99920.66;;;20.19;73.42
57126;BME280;43000;50.770;6.110;2022-07-21T10:12:11;99924.66;;;20.04;75.30
57126;BME280;43000;50.770;6.110;2022-07-21T10:14:38;99929.50;;;19.89;76.92
57126;BME280;43000;50.770;6.110;2022-07-21T10:17:05;99918.59;;;19.81;77.26
57126;BME280;43000;50.770;6.110;2022-07-21T10:19:39;99924.09;;;19.79;78.25
57126;BME280;43000;50.770;6.110;2022-07-21T10:22:15;99923.84;;;19.82;79.63
57126;BME280;43000;50.770;6.110;2022-07-21T10:24:45;99918.75;;;19.79;79.92
57126;BME280;43000;50.770;6.110;2022-07-21T10:27:13;99923.03;;;19.70;79.70
57126;BME280;43000;50.770;6.110;2022-07-21T10:29:57;99934.09;;;19.66;80.35
57126;BME280;43000;50.770;6.110;2022-07-21T10:32:28;99926.16;;;19.55;81.36
57126;BME280;43000;50.770;6.110;2022-07-21T10:35:00;99926.25;;;19.32;82.09
57126;BME280;43000;50.770;6.110;2022-07-21T10:37:46;99932.28;;;19.13;83.68
57126;BME280;43000;50.770;6.110;2022-07-21T10:40:36;99933.41;;;18.99;85.61
57126;BME280;43000;50.770;6.110;2022-07-21T10:43:37;99937.06;;;18.87;87.13
57126;BME280;43000;50.770;6.110;2022-07-21T10:46:33;99937.19;;;18.74;87.98
57126;BME280;43000;50.770;6.110;2022-07-21T10:49:01;99944.84;;;18.67;89.28
57126;BME280;43000;50.770;6.110;2022-07-21T10:51:30;99935.78;;;18.59;89.90
57126;BME280;43000;50.770;6.110;2022-07-21T10:54:16;99943.31;;;18.54;90.97
57126;BME280;43000;50.770;6.110;2022-07-21T10:57:25;99943.03;;;18.45;91.83
57126;BME280;43000;50.770;6.110;2022-07-21T11:00:18;99942.72;;;18.39;92.87
57126;BME280;43000;50.770;6.110;2022-07-21T11:02:47;99946.31;;;18.38;93.94
57126;BME280;43000;50.770;6.110;2022-07-21T11:05:14;99947.06;;;18.40;94.36
57126;BME280;43000;50.770;6.110;2022-07-21T11:08:19;99935.66;;;18.38;93.69
57126;BME280;43000;50.770;6.110;2022-07-21T11:10:48;99937.47;;;18.37;94.03
57126;BME280;43000;50.770;6.110;2022-07-21T11:13:16;99940.75;;;18.41;94.70
57126;BME280;43000;50.770;6.110;2022-07-21T11:15:47;99940.75;;;18.41;93.39
57126;BME280;43000;50.770;6.110;2022-07-21T11:18:18;99937.22;;;18.40;94.47
57126;BME280;43000;50.770;6.110;2022-07-21T11:21:03;99945.59;;;18.47;95.25
57126;BME280;43000;50.770;6.110;2022-07-21T11:23:38;99939.06;;;18.51;94.21
57126;BME280;43000;50.770;6.110;2022-07-21T11:26:05;99945.97;;;18.54;94.94
57126;BME280;43000;50.770;6.110;2022-07-21T11:28:32;99943.78;;;18.59;95.21
57126;BME280;43000;50.770;6.110;2022-07-21T11:31:09;99945.09;;;18.64;95.07
57126;BME280;43000;50.770;6.110;2022-07-21T11:33:37;99949.25;;;18.69;94.47
57126;BME280;43000;50.770;6.110;2022-07-21T11:36:04;99941.09;;;18.70;94.01
57126;BME280;43000;50.770;6.110;2022-07-21T11:38:31;99935.50;;;18.73;94.10
57126;BME280;43000;50.770;6.110;2022-07-21T11:41:15;99933.34;;;18.78;95.67
57126;BME280;43000;50.770;6.110;2022-07-21T11:43:43;99943.16;;;18.78;95.01
57126;BME280;43000;50.770;6.110;2022-07-21T11:46:11;99935.16;;;18.78;94.66
57126;BME280;43000;50.770;6.110;2022-07-21T11:48:38;99943.66;;;18.83;94.97
57126;BME280;43000;50.770;6.110;2022-07-21T11:51:05;99935.13;;;18.89;95.33
57126;BME280;43000;50.770;6.110;2022-07-21T11:53:32;99936.59;;;18.93;95.57
57126;BME280;43000;50.770;6.110;2022-07-21T11:55:59;99939.84;;;18.97;95.04
57126;BME280;43000;50.770;6.110;2022-07-21T11:58:27;99934.97;;;19.02;94.87
57126;BME280;43000;50.770;6.110;2022-07-21T12:01:04;99933.03;;;19.04;94.04
57126;BME280;43000;50.770;6.110;2022-07-21T12:03:31;99941.66;;;19.07;94.75
57126;BME280;43000;50.770;6.110;2022-07-21T12:05:58;99942.25;;;19.11;93.72
57126;BME280;43000;50.770;6.110;2022-07-21T12:08:25;99938.34;;;19.15;93.58
57126;BME280;43000;50.770;6.110;2022-07-21T12:11:04;99934.44;;;19.19;92.29
57126;BME280;43000;50.770;6.110;2022-07-21T12:13:51;99933.47;;;19.20;92.26
57126;BME280;43000;50.770;6.110;2022-07-21T12:16:17;99935.88;;;19.23;92.10
57126;BME280;43000;50.770;6.110;2022-07-21T12:18:44;99928.59;;;19.25;92.21
57126;BME280;43000;50.770;6.110;2022-07-21T12:21:11;99946.94;;;19.30;91.82
57126;BME280;43000;50.770;6.110;2022-07-21T12:23:37;99942.78;;;19.37;92.25
57126;BME280;43000;50.770;6.110;2022-07-21T12:26:04;99935.59;;;19.38;91.66
57126;BME280;43000;50.770;6.110;2022-07-21T12:28:45;99938.47;;;19.46;93.00
57126;BME280;43000;50.770;6.110;2022-07-21T12:31:14;99939.75;;;19.51;92.41
57126;BME280;43000;50.770;6.110;2022-07-21T12:33:45;99946.09;;;19.50;91.50
57126;BME280;43000;50.770;6.110;2022-07-21T12:36:12;99942.78;;;19.58;93.67
57126;BME280;43000;50.770;6.110;2022-07-21T12:38:41;99947.63;;;19.64;92.29
57126;BME280;43000;50.770;6.110;2022-07-21T12:41:09;99944.44;;;19.70;92.14
57126;BME280;43000;50.770;6.110;2022-07-21T12:43:36;99944.31;;;19.72;91.03
57126;BME280;43000;50.770;6.110;2022-07-21T12:46:10;99949.97;;;19.79;90.98
57126;BME280;43000;50.770;6.110;2022-07-21T12:48:37;99952.53;;;19.80;90.01
57126;BME280;43000;50.770;6.110;2022-07-21T12:51:12;99959.00;;;19.78;89.06
57126;BME280;43000;50.770;6.110;2022-07-21T12:53:42;99961.47;;;19.69;89.24
57126;BME280;43000;50.770;6.110;2022-07-21T12:56:10;99965.84;;;19.70;89.58
57126;BME280;43000;50.770;6.110;2022-07-21T12:58:37;99972.34;;;19.57;89.41
57126;BME280;43000;50.770;6.110;2022-07-21T13:01:06;99972.28;;;19.36;90.79
57126;BME280;43000;50.770;6.110;2022-07-21T13:03:33;99980.84;;;19.18;90.94
57126;BME280;43000;50.770;6.110;2022-07-21T13:06:02;99974.31;;;19.00;91.85
57126;BME280;43000;50.770;6.110;2022-07-21T13:08:29;99981.06;;;18.83;91.45